Time;durP1;ratioP1;P1;durP2;ratioP2;P2;SDS_P1;SDS_P2;PMS_P1;PMS_P2;Temp;Humidity;BMP_temperature;BMP_pressure;BME280_temperature;BME280_humidity;BME280_pressure;Samples;Min_cycle;Max_cycle;Signal;HPM_P1;HPM_P2
2022/02/24 00:02:29;;;;;;;19.75;8.02;;;;;;;6.15;75.94;100814.94;6227176;23;20078;-92
2022/02/24 00:05:25;;;;;;;;;;;;;;;;;;;;;
2022/02/24 00:08:04;;;;;;;15.25;7.70;;;;;;;5.66;76.64;100747.66;6242265;23;20071;-92
2022/02/24 00:10:36;;;;;;;15.75;8.07;;;;;;;5.92;76.40;100799.69;6241596;23;20016;-92
2022/02/24 00:13:07;;;;;;;16.83;7.60;;;;;;;5.63;76.58;100745.09;6244180;23;20028;-92
2022/02/24 00:15:41;;;;;;;13.95;6.93;;;;;;;5.74;76.78;100764.13;6244417;23;20024;-92
2022/02/24 00:18:14;;;;;;;18.10;8.15;;;;;;;5.64;76.89;100737.19;6244766;23;20093;-92
2022/02/24 00:20:45;;;;;;;15.27;8.25;;;;;;;5.67;76.80;100730.97;6219417;23;20024;-91
2022/02/24 00:23:26;;;;;;;15.02;7.05;;;;;;;5.85;76.93;100746.34;6243895;23;20039;-93
2022/02/24 00:26:00;;;;;;;18.52;7.40;;;;;;;5.72;76.27;100737.00;6245063;23;20016;-93
2022/02/24 00:28:45;;;;;;;16.92;7.80;;;;;;;5.86;76.77;100755.97;6237988;23;20020;-92
2022/02/24 00:31:20;;;;;;;17.75;7.75;;;;;;;6.00;77.09;100776.72;6243030;23;20039;-91
2022/02/24 00:34:02;;;;;;;17.52;7.05;;;;;;;6.00;76.94;100781.97;6219874;23;20474;-92
2022/02/24 00:36:44;;;;;;;14.90;7.63;;;;;;;5.62;76.94;100724.97;6241818;23;20342;-92
2022/02/24 00:39:19;;;;;;;14.88;7.40;;;;;;;5.97;77.53;100775.03;6243732;23;20016;-92
2022/02/24 00:41:50;;;;;;;14.27;7.78;;;;;;;5.74;77.48;100732.59;6242476;23;20016;-91
2022/02/24 00:44:40;;;;;;;;;;;;;;;;;;;;;
2022/02/24 00:47:09;;;;;;;15.63;7.38;;;;;;;5.83;77.42;100732.38;6240320;23;20016;-93
2022/02/24 00:49:44;;;;;;;13.55;6.82;;;;;;;5.78;77.50;100701.84;6245330;23;20016;-93
2022/02/24 00:52:48;;;;;;;;;;;;;;;;;;;;;
2022/02/24 00:55:33;;;;;;;14.60;7.25;;;;;;;6.39;76.76;100763.56;6245816;23;20074;-93
2022/02/24 00:58:26;;;;;;;10.88;6.07;;;;;;;6.29;75.87;100737.50;6246874;23;20028;-91
2022/02/24 01:00:56;;;;;;;16.15;6.55;;;;;;;6.41;74.99;100728.44;6232972;23;20036;-92
2022/02/24 01:03:45;;;;;;;14.70;7.00;;;;;;;6.67;74.20;100743.56;6261029;23;20020;-92
2022/02/24 01:06:21;;;;;;;12.13;6.35;;;;;;;6.40;73.13;100676.72;6259404;23;20020;-93
2022/02/24 01:08:48;;;;;;;16.73;6.50;;;;;;;6.78;71.45;100740.63;6252365;23;20454;-93
2022/02/24 01:11:37;;;;;;;11.93;5.80;;;;;;;6.61;71.67;100702.47;6230842;23;20016;-92
2022/02/24 01:14:16;;;;;;;16.27;7.22;;;;;;;6.38;71.64;100668.00;6254778;23;20028;-92
2022/02/24 01:16:51;;;;;;;15.20;7.22;;;;;;;6.44;71.46;100667.00;6249137;23;20023;-91
2022/02/24 01:19:22;;;;;;;8.65;5.78;;;;;;;6.63;70.78;100699.78;6249478;23;20031;-91
2022/02/24 01:22:17;;;;;;;13.98;6.55;;;;;;;6.89;70.79;100728.06;6250670;23;20022;-92
2022/02/24 01:24:50;;;;;;;14.18;6.63;;;;;;;6.88;71.21;100721.94;6234459;23;20027;-93
2022/02/24 01:27:42;;;;;;;12.68;5.93;;;;;;;6.89;70.63;100728.06;6267466;22;20108;-94
2022/02/24 01:30:16;;;;;;;10.77;6.07;;;;;;;6.44;70.67;100649.44;6264182;23;20020;-93
2022/02/24 01:32:47;;;;;;;13.65;6.18;;;;;;;6.42;71.12;100653.00;6248661;23;20016;-93
2022/02/24 01:35:25;;;;;;;12.73;6.10;;;;;;;6.49;71.29;100678.25;6246414;23;20020;-92
2022/02/24 01:37:55;;;;;;;12.23;5.85;;;;;;;6.50;71.85;100677.34;6245427;23;20034;-92
2022/02/24 01:40:25;;;;;;;16.00;6.55;;;;;;;6.29;72.39;100648.06;6243117;23;20035;-93
2022/02/24 01:42:52;;;;;;;10.65;6.35;;;;;;;6.24;72.89;100641.19;6245726;23;20023;-93
2022/02/24 01:45:29;;;;;;;11.98;6.10;;;;;;;6.23;72.62;100634.19;6244838;23;20082;-91
2022/02/24 01:47:58;;;;;;;11.00;6.18;;;;;;;6.58;72.78;100685.91;6243532;23;20138;-91
2022/02/24 01:50:38;;;;;;;13.27;6.78;;;;;;;6.27;72.63;100631.47;6240739;23;20339;-92
2022/02/24 01:53:19;;;;;;;14.15;6.43;;;;;;;6.62;73.09;100671.75;6220781;23;20128;-90
2022/02/24 01:55:50;;;;;;;14.85;6.50;;;;;;;6.62;73.34;100672.63;6244469;23;20023;-91
2022/02/24 01:58:22;;;;;;;12.45;6.65;;;;;;;6.53;73.56;100646.56;6245145;23;20035;-91
2022/02/24 02:00:52;;;;;;;12.32;7.63;;;;;;;6.39;73.29;100632.91;6241505;23;20043;-91
2022/02/24 02:03:25;;;;;;;12.48;7.13;;;;;;;6.40;73.64;100624.13;6244457;23;20452;-92
2022/02/24 02:06:04;;;;;;;14.18;7.10;;;;;;;6.42;74.32;100647.75;6244589;23;20108;-94
2022/02/24 02:08:46;;;;;;;14.57;6.85;;;;;;;6.39;73.86;100616.25;6243369;23;20039;-91
2022/02/24 02:11:15;;;;;;;14.05;7.35;;;;;;;6.60;73.71;100645.50;6243085;23;20016;-91
2022/02/24 02:13:47;;;;;;;12.90;7.07;;;;;;;6.44;74.08;100617.88;6243634;23;20024;-91
2022/02/24 02:16:17;;;;;;;13.02;6.90;;;;;;;6.57;74.55;100637.69;6244448;23;20082;-92
2022/02/24 02:18:46;;;;;;;13.85;6.90;;;;;;;6.50;74.50;100614.19;6243490;23;20020;-91
2022/02/24 02:21:17;;;;;;;13.82;6.82;;;;;;;6.44;74.79;100609.97;6241229;23;20020;-91
2022/02/24 02:23:50;;;;;;;13.40;7.03;;;;;;;6.31;74.18;100582.25;6241358;23;20368;-92
2022/02/24 02:26:32;;;;;;;12.70;7.10;;;;;;;6.28;74.23;100577.09;6243375;23;20022;-92
2022/02/24 02:29:02;;;;;;;16.00;7.32;;;;;;;6.55;74.76;100628.97;6244658;23;20058;-92
2022/02/24 02:31:36;;;;;;;12.48;6.95;;;;;;;6.19;74.71;100577.31;6242169;23;20016;-93
2022/02/24 02:34:33;;;;;;;10.48;7.20;;;;;;;6.20;74.94;100584.31;6235162;23;20086;-92
2022/02/24 02:37:26;;;;;;;13.75;6.65;;;;;;;6.30;74.52;100591.91;6165388;23;20309;-92
2022/02/24 02:40:40;;;;;;;13.93;7.20;;;;;;;6.07;74.90;100564.50;6205709;23;20091;-93
2022/02/24 02:43:41;;;;;;;;;;;;;;;;;;;;;
2022/02/24 02:46:16;;;;;;;9.98;6.15;;;;;;;6.29;75.68;100621.78;6082043;23;20022;-92
2022/02/24 02:48:54;;;;;;;14.77;6.82;;;;;;;5.93;75.33;100555.22;6091637;23;20022;-92
2022/02/24 02:51:33;;;;;;;13.93;6.88;;;;;;;6.22;75.33;100614.94;6089536;23;20025;-92
2022/02/24 02:54:02;;;;;;;12.95;6.65;;;;;;;5.88;76.00;100569.31;6101490;23;20051;-93
2022/02/24 02:56:37;;;;;;;13.00;7.03;;;;;;;6.00;75.91;100571.66;6083475;23;20022;-93
2022/02/24 02:59:19;;;;;;;13.90;6.70;;;;;;;6.01;75.75;100577.78;6138517;23;20082;-92
2022/02/24 03:01:55;;;;;;;14.10;7.50;;;;;;;5.80;76.55;100543.25;6251428;23;20024;-92
2022/02/24 03:04:25;;;;;;;16.05;7.53;;;;;;;5.79;77.14;100541.53;6244118;23;20020;-91
2022/02/24 03:07:25;;;;;;;14.38;7.20;;;;;;;5.84;77.37;100550.13;6243246;23;20012;-91
2022/02/24 03:09:56;;;;;;;13.63;6.97;;;;;;;5.88;77.17;100533.44;6244351;23;20100;-92
2022/02/24 03:12:39;;;;;;;;;;;;;;;;;;;;;
2022/02/24 03:15:13;;;;;;;13.52;7.03;;;;;;;6.10;78.08;100572.31;6243557;23;20106;-91
2022/02/24 03:17:50;;;;;;;16.25;7.75;;;;;;;5.99;77.89;100526.13;6247780;23;20016;-91
2022/02/24 03:20:52;;;;;;;13.33;7.37;;;;;;;6.06;77.50;100539.97;6241334;23;20507;-92
2022/02/24 03:23:28;;;;;;;14.32;7.43;;;;;;;6.12;78.08;100545.09;6242123;23;20485;-90
2022/02/24 03:26:07;;;;;;;14.57;7.53;;;;;;;6.24;78.33;100565.78;6243043;23;20027;-90
2022/02/24 03:29:07;;;;;;;;;;;;;;;;;;;;;
2022/02/24 03:31:46;;;;;;;16.98;7.32;;;;;;;6.00;79.03;100500.69;6216984;23;20099;-92
2022/02/24 03:34:40;;;;;;;14.77;7.40;;;;;;;6.19;79.28;100533.50;6244789;23;20012;-91
2022/02/24 03:37:18;;;;;;;17.00;7.82;;;;;;;6.22;78.94;100536.03;6244899;23;20039;-91
2022/02/24 03:39:53;;;;;;;12.30;7.53;;;;;;;6.32;78.84;100541.91;6241603;23;20016;-94
2022/02/24 03:42:33;;;;;;;;;;;;;;;;;;;;;
2022/02/24 03:45:07;;;;;;;;;;;;;;;6.53;78.42;100559.75;6231515;23;20024;-91
2022/02/24 03:47:49;;;;;;;14.50;7.07;;;;;;;6.53;78.53;100549.22;6245746;23;19959;-91
2022/02/24 03:50:23;;;;;;;16.42;7.32;;;;;;;6.27;78.41;100504.38;6245682;23;20020;-91
2022/02/24 03:53:33;;;;;;;12.82;7.35;;;;;;;6.38;78.25;100522.47;6252518;23;20031;-92
2022/02/24 03:56:16;;;;;;;12.45;6.70;;;;;;;6.16;78.83;100483.59;6248557;23;20016;-92
2022/02/24 03:59:14;;;;;;;16.50;6.82;;;;;;;6.54;78.47;100548.31;6243899;23;20027;-91
2022/02/24 04:02:07;;;;;;;13.13;6.93;;;;;;;6.20;78.62;100479.13;6236151;23;20470;-91
2022/02/24 04:04:39;;;;;;;14.00;7.30;;;;;;;6.37;78.69;100491.81;6241878;23;20020;-92
2022/02/24 04:07:17;;;;;;;13.88;6.95;;;;;;;6.56;79.13;100535.13;6242829;23;20078;-92
2022/02/24 04:09:59;;;;;;;15.02;6.93;;;;;;;6.28;78.52;100472.78;6243130;23;20093;-93
2022/02/24 04:12:52;;;;;;;10.13;6.88;;;;;;;6.34;78.41;100476.97;6239186;23;20448;-93
2022/02/24 04:15:23;;;;;;;14.95;6.93;;;;;;;6.53;78.10;100501.00;6242429;23;20032;-91
2022/02/24 04:18:00;;;;;;;14.45;6.95;;;;;;;6.74;78.32;100528.47;6241993;23;20012;-92
2022/02/24 04:20:48;;;;;;;;;;;;;;;;;;;;;
2022/02/24 04:23:27;;;;;;;14.70;7.43;;;;;;;6.31;78.44;100462.13;6241452;22;20095;-91
2022/02/24 04:26:00;;;;;;;16.10;7.70;;;;;;;6.33;78.79;100460.34;6241280;23;20059;-92
2022/02/24 04:28:29;;;;;;;16.83;7.93;;;;;;;6.36;78.54;100456.75;6242436;23;20020;-93
2022/02/24 04:30:57;;;;;;;13.00;6.97;;;;;;;6.36;78.83;100451.50;6220999;23;20038;-92
2022/02/24 04:33:28;;;;;;;15.50;7.90;;;;;;;6.58;78.92;100486.81;6245993;23;20024;-91
2022/02/24 04:36:02;;;;;;;14.70;7.75;;;;;;;6.61;78.62;100483.22;6241584;23;20555;-92
2022/02/24 04:39:03;;;;;;;19.50;7.50;;;;;;;6.40;78.91;100447.88;6201543;23;20020;-91
2022/02/24 04:41:34;;;;;;;13.57;7.25;;;;;;;6.72;79.00;100493.44;6250190;23;20024;-91
2022/02/24 04:44:02;;;;;;;12.30;7.53;;;;;;;6.47;79.21;100457.31;6249322;23;20081;-91
2022/02/24 04:46:33;;;;;;;13.27;7.50;;;;;;;6.48;79.32;100456.41;6245836;23;20099;-92
2022/02/24 04:49:00;;;;;;;14.57;8.15;;;;;;;6.55;78.48;100443.94;6243956;23;20074;-91
2022/02/24 04:51:36;;;;;;;18.10;8.35;;;;;;;6.49;79.11;100450.22;6244314;23;20028;-91
2022/02/24 04:54:09;;;;;;;13.50;8.20;;;;;;;6.54;79.10;100450.09;6245928;23;20095;-92
2022/02/24 04:56:38;;;;;;;15.00;8.15;;;;;;;6.54;78.90;100458.84;6218880;23;20013;-91
2022/02/24 04:59:07;;;;;;;18.67;8.60;;;;;;;6.34;79.48;100419.97;6246804;23;20016;-91
2022/02/24 05:01:40;;;;;;;12.93;7.07;;;;;;;6.50;79.54;100446.69;6242189;23;20074;-91
2022/02/24 05:04:16;;;;;;;15.88;7.88;;;;;;;6.48;79.61;100440.59;6245616;23;20012;-92
2022/02/24 05:06:53;;;;;;;15.25;8.00;;;;;;;6.70;80.05;100480.31;6247902;23;20470;-92
2022/02/24 05:09:22;;;;;;;15.70;7.63;;;;;;;6.41;79.54;100419.81;6252558;23;20028;-92
2022/02/24 05:11:53;;;;;;;16.40;8.50;;;;;;;6.71;79.85;100465.41;6249261;23;20027;-91
2022/02/24 05:14:35;;;;;;;13.00;7.80;;;;;;;6.66;79.46;100450.59;6249349;23;20028;-92
2022/02/24 05:17:39;;;;;;;12.48;6.90;;;;;;;6.63;79.18;100437.53;6245212;23;20048;-91
2022/02/24 05:20:19;;;;;;;15.20;7.97;;;;;;;6.75;79.33;100448.59;6246994;23;20020;-92
2022/02/24 05:22:47;;;;;;;10.93;7.20;;;;;;;6.54;79.51;100413.28;6242489;23;20056;-92
2022/02/24 05:25:17;;;;;;;14.70;7.70;;;;;;;6.75;79.64;100438.09;6246604;23;20043;-91
2022/02/24 05:27:50;;;;;;;15.50;7.82;;;;;;;6.74;79.76;100439.84;6244696;23;20024;-93
2022/02/24 05:30:59;;;;;;;13.80;8.13;;;;;;;6.81;79.35;100429.97;6244437;23;20679;-91
2022/02/24 05:33:51;;;;;;;15.38;8.80;;;;;;;6.45;79.51;100379.38;6195869;23;20020;-92
2022/02/24 05:36:34;;;;;;;14.85;7.97;;;;;;;6.75;79.85;100419.66;6243162;23;20169;-92
2022/02/24 05:39:05;;;;;;;15.35;8.20;;;;;;;6.46;79.64;100358.25;6245658;23;20020;-91
2022/02/24 05:41:40;;;;;;;14.48;8.57;;;;;;;6.45;79.73;100355.69;6245907;23;20020;-92
2022/02/24 05:44:32;;;;;;;15.85;8.07;;;;;;;6.65;79.57;100380.44;6262573;23;20045;-93
2022/02/24 05:47:03;;;;;;;15.25;8.20;;;;;;;6.49;79.83;100363.41;6262483;23;20016;-93
2022/02/24 05:49:36;;;;;;;15.98;8.15;;;;;;;6.41;79.87;100344.41;6257679;23;20016;-92
2022/02/24 05:52:12;;;;;;;12.95;7.93;;;;;;;6.41;80.33;100352.28;6251192;23;20020;-91
2022/02/24 05:54:47;;;;;;;14.50;9.07;;;;;;;6.50;80.55;100378.28;6222209;23;20456;-91
2022/02/24 05:57:33;;;;;;;16.92;7.97;;;;;;;6.30;81.08;100349.97;6222552;23;20074;-91
2022/02/24 06:00:02;;;;;;;14.88;8.95;;;;;;;6.33;81.17;100352.50;6248582;23;20351;-92
2022/02/24 06:02:37;;;;;;;14.18;8.77;;;;;;;6.43;81.48;100365.41;6217714;23;20024;-91
2022/02/24 06:05:18;;;;;;;16.75;9.25;;;;;;;6.61;81.67;100407.75;6246422;23;20122;-92
2022/02/24 06:08:01;;;;;;;14.23;8.35;;;;;;;6.43;81.62;100373.28;6246208;23;20023;-92
2022/02/24 06:11:03;;;;;;;14.13;8.00;;;;;;;6.46;81.28;100392.44;6246040;23;20322;-92
2022/02/24 06:13:55;;;;;;;14.75;9.27;;;;;;;6.56;82.29;100407.06;6241328;23;20045;-93
2022/02/24 06:16:33;;;;;;;;;;;;;;;;;;;;;
2022/02/24 06:19:01;;;;;;;15.32;8.95;;;;;;;6.23;82.01;100345.81;6242602;23;20020;-92
2022/02/24 06:21:35;;;;;;;16.75;8.65;;;;;;;6.58;82.17;100394.72;6243616;23;20023;-92
2022/02/24 06:24:03;;;;;;;20.75;9.05;;;;;;;6.39;81.88;100358.50;6216404;23;20081;-92
2022/02/24 06:26:34;;;;;;;15.15;8.77;;;;;;;6.29;81.78;100331.63;6243002;23;20019;-92
2022/02/24 06:29:15;;;;;;;16.23;9.00;;;;;;;6.41;81.68;100359.31;6245005;23;20167;-92
2022/02/24 06:31:43;;;;;;;18.02;9.13;;;;;;;6.28;81.74;100322.88;6252193;23;20020;-93
2022/02/24 06:34:12;;;;;;;16.67;8.82;;;;;;;6.27;81.85;100328.19;6257397;23;20038;-92
2022/02/24 06:36:40;;;;;;;17.85;9.80;;;;;;;6.61;81.98;100385.88;6249594;23;20020;-92
2022/02/24 06:39:08;;;;;;;17.63;8.88;;;;;;;6.22;82.01;100320.41;6243805;23;20020;-91
2022/02/24 06:41:36;;;;;;;16.25;9.25;;;;;;;6.40;82.13;100366.34;6244928;23;20032;-94
2022/02/24 06:44:06;;;;;;;;;;;;;;;6.54;82.49;100384.34;6245367;23;20020;-93
2022/02/24 06:46:33;;;;;;;15.57;9.32;;;;;;;6.56;82.71;100388.66;6242060;23;20002;-92
2022/02/24 06:49:10;;;;;;;19.20;9.38;;;;;;;6.42;82.72;100355.78;6243788;23;20016;-93
2022/02/24 06:51:40;;;;;;;15.57;9.07;;;;;;;6.40;83.00;100355.81;6244511;23;20103;-94
2022/02/24 06:54:08;;;;;;;16.25;9.40;;;;;;;6.20;82.38;100305.59;6240992;23;20019;-91
2022/02/24 06:56:35;;;;;;;18.67;10.18;;;;;;;6.48;82.82;100359.06;6243337;23;20444;-92
2022/02/24 06:59:03;;;;;;;15.88;10.02;;;;;;;6.44;83.24;100346.06;6241925;23;20122;-90
2022/02/24 07:01:31;;;;;;;14.55;8.85;;;;;;;6.41;82.89;100335.66;6238452;23;20321;-90
2022/02/24 07:04:03;;;;;;;19.08;10.20;;;;;;;6.67;82.79;100365.47;6240394;23;20015;-89
2022/02/24 07:06:32;;;;;;;17.90;9.85;;;;;;;6.61;82.87;100360.41;6241409;23;20047;-89
2022/02/24 07:09:00;;;;;;;16.17;8.95;;;;;;;6.64;82.92;100375.22;6239709;23;20344;-90
2022/02/24 07:11:27;;;;;;;16.80;9.57;;;;;;;6.50;82.63;100337.97;6240938;23;20075;-92
2022/02/24 07:13:54;;;;;;;17.45;9.20;;;;;;;6.63;82.67;100342.78;6237511;23;20110;-91
2022/02/24 07:16:32;;;;;;;19.67;10.10;;;;;;;6.29;82.21;100294.81;6239172;23;20071;-89
2022/02/24 07:19:01;;;;;;;17.55;9.50;;;;;;;6.61;82.93;100344.63;6241570;23;20024;-91
2022/02/24 07:21:29;;;;;;;17.85;9.70;;;;;;;6.55;83.32;100329.03;6240407;23;20387;-89
2022/02/24 07:23:56;;;;;;;16.23;9.68;;;;;;;6.43;83.06;100295.25;6242060;23;20095;-90
2022/02/24 07:26:23;;;;;;;16.20;9.75;;;;;;;6.40;83.14;100302.34;6243552;23;20047;-92
2022/02/24 07:28:50;;;;;;;18.38;9.68;;;;;;;6.43;83.08;100303.13;6240986;23;20340;-90
2022/02/24 07:31:17;;;;;;;15.63;9.25;;;;;;;6.64;82.75;100318.22;6241758;23;20016;-91
2022/02/24 07:33:46;;;;;;;17.33;9.85;;;;;;;6.69;82.81;100331.22;6238440;23;20031;-91
2022/02/24 07:36:14;;;;;;;15.68;9.20;;;;;;;6.67;82.82;100320.75;6242014;23;20050;-92
2022/02/24 07:38:43;;;;;;;24.52;10.50;;;;;;;6.82;83.11;100336.94;6240854;23;20023;-90
2022/02/24 07:41:10;;;;;;;19.05;9.55;;;;;;;6.80;82.69;100331.72;6244806;23;20116;-89
2022/02/24 07:43:39;;;;;;;18.77;9.73;;;;;;;6.75;82.69;100325.78;6244079;23;20091;-88
2022/02/24 07:46:11;;;;;;;16.88;9.77;;;;;;;6.54;82.32;100284.38;6244307;23;20016;-91
2022/02/24 07:48:38;;;;;;;17.20;9.50;;;;;;;6.76;82.98;100309.09;6243188;23;20012;-91
2022/02/24 07:51:07;;;;;;;16.77;9.55;;;;;;;6.83;82.87;100294.78;6243076;23;20024;-90
2022/02/24 07:53:36;;;;;;;21.10;9.65;;;;;;;6.88;82.50;100284.97;6241769;23;20024;-89
2022/02/24 07:56:23;;;;;;;15.98;9.15;;;;;;;6.98;82.71;100306.56;6246277;23;20020;-89
2022/02/24 07:58:55;;;;;;;14.88;9.63;;;;;;;6.84;82.66;100277.22;6252002;23;20067;-90
2022/02/24 08:01:23;;;;;;;14.77;10.15;;;;;;;7.02;81.89;100289.78;6255363;23;20436;-89
2022/02/24 08:03:52;;;;;;;21.15;10.43;;;;;;;7.07;81.27;100297.53;6246263;23;20024;-89
2022/02/24 08:06:19;;;;;;;17.45;10.15;;;;;;;7.13;81.95;100306.06;6244231;23;20031;-89
2022/02/24 08:08:47;;;;;;;19.02;10.18;;;;;;;7.06;82.52;100293.16;6247026;23;20020;-90
2022/02/24 08:11:14;;;;;;;21.50;10.52;;;;;;;6.77;82.81;100244.16;6242827;23;20018;-89
2022/02/24 08:13:48;;;;;;;20.27;10.45;;;;;;;6.92;82.82;100254.16;6242680;23;20024;-90
2022/02/24 08:16:20;;;;;;;18.02;10.57;;;;;;;7.15;82.18;100284.94;6245709;23;20118;-89
2022/02/24 08:18:49;;;;;;;16.75;10.18;;;;;;;7.21;82.26;100296.13;6242764;23;20099;-94
2022/02/24 08:21:16;;;;;;;15.55;9.48;;;;;;;7.16;81.96;100274.34;6246781;23;20039;-89
2022/02/24 08:23:46;;;;;;;15.15;9.90;;;;;;;7.16;82.14;100279.63;6242344;23;20078;-90
2022/02/24 08:26:19;;;;;;;14.43;10.15;;;;;;;7.16;84.94;100261.19;6220006;23;20024;-88
2022/02/24 08:28:48;;;;;;;18.08;10.27;;;;;;;7.21;82.51;100254.00;6244147;22;20519;-91
2022/02/24 08:31:37;;;;;;;17.77;10.27;;;;;;;7.03;82.28;100218.63;6244378;23;20388;-90
2022/02/24 08:34:04;;;;;;;20.33;10.02;;;;;;;7.52;82.00;100284.50;6241966;23;20104;-89
2022/02/24 08:36:35;;;;;;;15.90;9.43;;;;;;;7.40;82.09;100262.06;6245992;23;20016;-88
2022/02/24 08:39:05;;;;;;;15.60;10.27;;;;;;;7.28;81.98;100252.00;6243192;23;20136;-89
2022/02/24 08:41:44;;;;;;;20.17;10.82;;;;;;;7.44;82.10;100268.97;6249307;23;20013;-90
2022/02/24 08:44:13;;;;;;;16.38;10.48;;;;;;;7.58;81.87;100292.19;6217251;23;20028;-90
2022/02/24 08:46:43;;;;;;;17.27;10.55;;;;;;;7.49;81.79;100255.63;6245340;23;20169;-90
2022/02/24 08:49:13;;;;;;;18.20;10.57;;;;;;;7.37;81.34;100210.38;6244614;23;20012;-92
2022/02/24 08:51:43;;;;;;;18.13;10.10;;;;;;;7.49;81.11;100216.13;6245546;23;20043;-89
2022/02/24 08:54:10;;;;;;;15.90;9.93;;;;;;;7.69;81.26;100243.44;6243927;23;20016;-90
2022/02/24 08:56:49;;;;;;;19.10;10.63;;;;;;;7.84;80.82;100260.47;6247261;23;20453;-89
2022/02/24 08:59:23;;;;;;;17.42;9.45;;;;;;;7.72;81.03;100224.00;6245223;23;20335;-90
2022/02/24 09:01:54;;;;;;;15.10;9.50;;;;;;;7.77;80.60;100222.06;6245011;23;20012;-89
2022/02/24 09:04:23;;;;;;;15.40;10.25;;;;;;;8.04;80.93;100257.03;6243622;23;20024;-90
2022/02/24 09:06:50;;;;;;;17.10;9.68;;;;;;;7.85;80.29;100193.63;6244148;23;20095;-91
2022/02/24 09:09:18;;;;;;;16.40;8.85;;;;;;;8.18;80.10;100233.66;6216613;23;20012;-89
2022/02/24 09:11:49;;;;;;;16.23;9.53;;;;;;;8.24;80.25;100199.09;6244692;23;20024;-89
2022/02/24 09:14:18;;;;;;;14.15;8.55;;;;;;;8.40;78.68;100183.53;6242270;23;20102;-89
2022/02/24 09:16:46;;;;;;;14.80;8.82;;;;;;;8.77;78.07;100214.53;6243690;23;20020;-91
2022/02/24 09:19:13;;;;;;;17.25;8.43;;;;;;;8.76;76.63;100186.41;6242361;23;20039;-90
2022/02/24 09:21:41;;;;;;;15.07;8.63;;;;;;;8.88;75.22;100179.72;6241523;23;20388;-91
2022/02/24 09:24:08;;;;;;;15.18;8.20;;;;;;;8.72;75.12;100138.16;6211853;23;20031;-89
2022/02/24 09:26:39;;;;;;;10.18;7.47;;;;;;;8.85;74.28;100142.91;6242324;23;20023;-90
2022/02/24 09:29:07;;;;;;;12.57;7.70;;;;;;;9.13;74.33;100202.34;6243050;23;20032;-90
2022/02/24 09:31:34;;;;;;;15.68;7.80;;;;;;;8.83;74.75;100156.16;6244875;23;20151;-89
2022/02/24 09:34:02;;;;;;;13.15;7.95;;;;;;;8.84;74.93;100147.31;6243307;23;20025;-91
2022/02/24 09:36:29;;;;;;;13.27;7.63;;;;;;;8.87;74.75;100143.69;6243831;23;20024;-90
2022/02/24 09:39:03;;;;;;;13.32;7.90;;;;;;;9.06;74.81;100163.94;6217461;23;20074;-91
2022/02/24 09:41:36;;;;;;;10.77;6.95;;;;;;;9.17;74.68;100158.16;6246729;23;20020;-90
2022/02/24 09:44:07;;;;;;;11.48;7.32;;;;;;;9.29;73.86;100154.97;6216426;23;20038;-88
2022/02/24 09:46:39;;;;;;;13.55;7.40;;;;;;;9.23;72.90;100128.00;6244782;23;20058;-89
2022/02/24 09:49:18;;;;;;;13.88;7.70;;;;;;;9.53;72.31;100137.13;6244741;23;20024;-90
2022/02/24 09:51:52;;;;;;;12.20;7.65;;;;;;;9.70;72.10;100168.06;6243524;23;20016;-89
2022/02/24 09:54:22;;;;;;;13.20;7.55;;;;;;;9.49;72.06;100139.06;6239080;23;20020;-89
2022/02/24 09:56:53;;;;;;;12.65;7.55;;;;;;;9.60;72.33;100150.94;6243968;23;20020;-89
2022/02/24 09:59:22;;;;;;;13.57;7.57;;;;;;;9.73;72.29;100144.16;6244162;23;20016;-89
2022/02/24 10:02:03;;;;;;;;;;;;;;;;;;;;;
2022/02/24 10:04:35;;;;;;;12.82;8.07;;;;;;;9.88;71.21;100129.31;6240586;23;20016;-89
2022/02/24 10:07:27;;;;;;;11.52;8.02;;;;;;;9.68;71.67;100086.19;6216310;23;20364;-88
2022/02/24 10:10:25;;;;;;;10.63;7.43;;;;;;;10.06;70.97;100137.22;6243337;23;20028;-89
2022/02/24 10:13:09;;;;;;;13.38;7.10;;;;;;;9.90;71.03;100108.97;6240776;23;20086;-90
2022/02/24 10:15:40;;;;;;;13.38;7.63;;;;;;;9.95;71.51;100107.78;6245063;23;20069;-89
2022/02/24 10:18:15;;;;;;;10.75;6.90;;;;;;;9.90;70.68;100064.84;6218453;23;20448;-89
2022/02/24 10:20:57;;;;;;;11.30;7.70;;;;;;;10.03;69.83;100067.75;6248722;23;20027;-89
2022/02/24 10:23:38;;;;;;;9.70;7.25;;;;;;;10.08;69.04;100063.91;6256119;23;20356;-91
2022/02/24 10:26:10;;;;;;;15.68;6.93;;;;;;;10.05;68.79;100053.50;6249709;23;20024;-91
2022/02/24 10:31:53;;;;;;;11.18;6.93;;;;;;;10.53;67.88;100079.28;6230011;23;20023;-90
2022/02/24 10:34:30;;;;;;;11.98;6.93;;;;;;;10.69;68.09;100105.84;6242878;23;20024;-89
2022/02/24 10:37:20;;;;;;;;;;;;;;;;;;;;;
2022/02/24 10:40:14;;;;;;;12.25;7.53;;;;;;;10.40;68.51;100066.75;6239081;23;20022;-90
2022/02/24 10:43:13;;;;;;;9.55;6.63;;;;;;;10.32;68.45;100040.69;6240351;23;20054;-90
2022/02/24 10:46:17;;;;;;;13.32;7.03;;;;;;;10.25;68.25;100014.59;6243387;23;20043;-90
2022/02/24 10:49:19;;;;;;;;;;;;;;;;;;;;;
2022/02/24 10:52:20;;;;;;;12.35;7.30;;;;;;;10.49;67.89;100014.19;6230952;23;20012;-91
2022/02/24 10:55:14;;;;;;;12.88;7.10;;;;;;;11.04;67.09;100047.44;6241459;23;20013;-90
2022/02/24 10:58:17;;;;;;;12.38;7.28;;;;;;;10.89;66.85;99990.84;6219911;23;20082;-90
2022/02/24 11:01:28;;;;;;;10.80;6.30;;;;;;;11.55;62.80;100023.38;6244291;23;20088;-89
2022/02/24 11:04:15;;;;;;;11.40;6.40;;;;;;;11.55;62.40;99986.22;6208839;23;20022;-92
2022/02/24 11:07:10;;;;;;;;;;;;;;;;;;;;;
2022/02/24 11:09:51;;;;;;;10.82;6.57;;;;;;;12.11;61.31;100021.06;6242619;23;20052;-91
2022/02/24 11:12:36;;;;;;;11.65;6.53;;;;;;;11.96;61.29;99984.81;6244772;23;20107;-91
2022/02/24 11:15:18;;;;;;;12.48;7.40;;;;;;;11.83;61.94;99974.03;6242613;23;20451;-90
2022/02/24 11:17:48;;;;;;;12.93;6.65;;;;;;;11.96;62.25;100000.75;6243143;23;20343;-91
2022/02/24 11:20:32;;;;;;;9.77;6.53;;;;;;;11.78;62.86;99973.50;6221856;23;20066;-89
2022/02/24 11:23:01;;;;;;;9.25;6.30;;;;;;;11.60;62.37;99952.38;6240090;23;20020;-90
2022/02/24 11:26:27;;;;;;;12.57;7.20;;;;;;;11.97;62.23;99997.13;6241927;23;20039;-89
2022/02/24 11:29:54;;;;;;;;;;;;;;;;;;;;;
2022/02/24 11:37:19;;;;;;;;;;;;;;;;;;;;;
2022/02/24 11:40:37;;;;;;;9.88;6.00;;;;;;;11.38;64.17;99949.22;5922264;23;20028;-90
2022/02/24 11:43:37;;;;;;;9.73;6.10;;;;;;;10.98;64.50;99899.44;6033208;23;20039;-88
2022/02/24 11:47:30;;;;;;;12.90;6.15;;;;;;;11.23;65.30;99924.44;5978959;24;20025;-94
2022/02/24 11:50:47;;;;;;;10.95;6.18;;;;;;;11.13;64.63;99882.66;5969985;24;20042;-89
2022/02/24 11:54:24;;;;;;;;;;;;;;;;;;;;;
2022/02/24 11:57:32;;;;;;;9.18;5.80;;;;;;;11.12;65.05;99857.13;6048725;23;20526;-88
2022/02/24 12:01:07;;;;;;;10.38;5.93;;;;;;;11.30;64.80;99845.44;5976967;24;20051;-90
2022/02/24 12:03:57;;;;;;;9.98;6.18;;;;;;;12.01;63.15;99898.66;5971776;23;20081;-91
2022/02/24 12:07:12;;;;;;;10.00;5.95;;;;;;;12.26;62.54;99898.03;6032836;23;20024;-89
2022/02/24 12:10:19;;;;;;;10.43;5.25;;;;;;;12.00;62.18;99832.41;6032298;23;20075;-93
2022/02/24 12:13:46;;;;;;;12.23;5.22;;;;;;;12.74;60.63;99879.97;6032159;23;20028;-90
2022/02/24 12:16:34;;;;;;;10.75;4.72;;;;;;;13.09;59.05;99883.84;6060498;23;20022;-91
2022/02/24 12:19:51;;;;;;;8.77;4.97;;;;;;;12.96;59.17;99870.50;6121238;23;20033;-90
2022/02/24 12:22:47;;;;;;;8.45;4.38;;;;;;;12.83;59.75;99844.81;6095780;23;20022;-91
2022/02/24 12:33:02;;;;;;;8.32;3.97;;;;;;;12.77;58.90;99806.22;6117526;23;20024;-90
2022/02/24 12:35:40;;;;;;;5.75;3.72;;;;;;;12.86;57.75;99818.06;6029454;23;20030;-88
2022/02/24 12:38:29;;;;;;;6.97;3.70;;;;;;;12.45;59.43;99804.78;6073166;23;20026;-88
2022/02/24 12:41:13;;;;;;;;;;;;;;;;;;;;;
2022/02/24 12:43:51;;;;;;;4.35;3.10;;;;;;;12.40;60.50;99820.16;6049602;23;20557;-91
2022/02/24 12:46:47;;;;;;;6.30;3.30;;;;;;;12.39;60.83;99811.34;6120666;23;20021;-88
2022/02/24 12:51:41;;;;;;;6.68;3.35;;;;;;;12.84;60.10;99831.44;5016251;27;20876;-90
2022/02/24 12:54:58;;;;;;;;;;;;;;;12.95;59.46;99849.34;229157;28;180105725;-88
2022/02/24 13:00:14;;;;;;;;;;;;;;;12.58;60.19;99835.78;3210969;28;175606210;-93
2022/02/24 13:03:02;;;;;;;;;;;;;;;;;;;;;
2022/02/24 13:06:43;;;;;;;;;;;;;;;;;;;;;
2022/02/24 13:17:23;;;;;;;6.63;2.20;;;;;;;11.94;59.57;99802.69;5058289;28;20728;-90